^^
Datos históricos de la estación: Murcia-Puente Tocinos
Diario Informe para Abril 6, 2019 Unidades:  Ingés    Métrico   Ambas
Diario Semanal Mensual Anual
  Máxima: Mínima: Promedio:
Temperatura: 75.6 °F 56.5 °F 64.8 °F
Punto de rocio: 59.4 °F 52 °F 55.8 °F
Humedad: 86% 55% 74%
Velocidad viento: 11.2mph 0mph 4.5mph
Racha viento: 21mph - -
Viento- - Este
Presión: 30.1 in 30 in -
Precipitación: 0 in    
 
 
Tabla de datos para Abril 6, 2019
Hora Temperatura Punto de rocio Presión Viento Velocidad viento Racha viento Humedad Intensidad lluvia(por hora) Nubes
00:04 60.1 °F 52.3 °F 30 in NE 4.3 mph 8.1 mph 75.4% 0 in
00:09 60.1 °F 52.5 °F 30 in NE 4.4 mph 8.5 mph 76% 0 in
00:14 59.9 °F 52.3 °F 30 in NNE 4.7 mph 9 mph 76% 0 in
00:19 59.7 °F 52.2 °F 30 in NNE 4.6 mph 7 mph 76.3% 0 in
00:24 59.5 °F 52.3 °F 30 in NNE 4.3 mph 7 mph 77% 0 in
00:29 59.5 °F 52.3 °F 30 in NNE 4.1 mph 6.2 mph 77% 0 in
00:34 59.5 °F 52.3 °F 30 in NE 3.6 mph 6 mph 77% 0 in
00:39 59.5 °F 52.3 °F 30 in NE 3.4 mph 5.4 mph 77% 0 in
00:44 59.5 °F 52.2 °F 30 in NNE 2.9 mph 6 mph 77% 0 in
00:49 59.4 °F 52.2 °F 30 in NNE 2.9 mph 6 mph 77% 0 in
00:54 59.4 °F 52.2 °F 30 in NNE 3.1 mph 5.2 mph 77% 0 in
00:59 59.4 °F 52.2 °F 30 in NNE 3 mph 5.8 mph 77.3% 0 in
01:04 59.4 °F 52.3 °F 30 in NNE 2.9 mph 6 mph 77.8% 0 in
01:09 59.2 °F 52.3 °F 30 in NNE 3.2 mph 6 mph 78% 0 in
01:14 59.2 °F 52.3 °F 30 in NNE 3.6 mph 5.2 mph 78% 0 in
01:19 59 °F 52.2 °F 30 in NNE 3.6 mph 5.2 mph 78% 0 in
01:24 58.8 °F 52 °F 30 in NNE 3.6 mph 6.9 mph 78.1% 0 in
01:29 58.8 °F 52.3 °F 30 in NNE 3.6 mph 7 mph 79% 0 in
01:34 58.6 °F 52.2 °F 30 in NNE 3.6 mph 7 mph 79% 0 in
01:39 58.6 °F 52.2 °F 30 in NNE 3.9 mph 7 mph 79% 0 in
01:44 58.6 °F 52.2 °F 30 in NNE 4.3 mph 6 mph 79.3% 0 in
01:49 58.6 °F 52.3 °F 30 in NO 3.4 mph 5.4 mph 79.8% 0 in
01:54 58.6 °F 52.2 °F 30 in NNO 2 mph 6 mph 79% 0 in
01:59 58.6 °F 52.2 °F 30 in NNO 2.2 mph 6.2 mph 79% 0 in
02:04 58.6 °F 52.5 °F 30 in NNE 2.4 mph 6 mph 80% 0 in
02:09 58.6 °F 52.5 °F 30 in North 2.4 mph 6 mph 80% 0 in
02:14 58.5 °F 52.3 °F 30 in NNE 2.4 mph 5 mph 80% 0 in
02:19 58.5 °F 52.3 °F 30 in NNE 2 mph 5 mph 80% 0 in
02:24 58.5 °F 52.3 °F 30 in NNE 1.4 mph 5.9 mph 80% 0 in
02:29 58.5 °F 52.3 °F 30 in NNE 1.8 mph 6 mph 80% 0 in
02:34 58.3 °F 52.2 °F 30 in NE 2.4 mph 5 mph 80% 0 in
02:39 58.3 °F 52.3 °F 30 in NE 2.4 mph 5 mph 80.8% 0 in
02:44 58.1 °F 52.3 °F 30 in NNE 2.4 mph 3.5 mph 81% 0 in
02:49 58.1 °F 52.3 °F 30 in NNE 2 mph 3.5 mph 81% 0 in
02:54 58.1 °F 52.3 °F 30 in NNE 1.4 mph 3.5 mph 81% 0 in
02:59 57.9 °F 52.2 °F 30 in ENE 1.6 mph 3.5 mph 81% 0 in
03:04 57.9 °F 52.2 °F 30 in ENE 1.8 mph 4.6 mph 81% 0 in
03:09 57.9 °F 52.2 °F 30 in NE 1.9 mph 5 mph 81% 0 in
03:14 57.9 °F 52.3 °F 30 in ENE 2 mph 5 mph 81.7% 0 in
03:19 57.9 °F 52.5 °F 30 in Este 2.2 mph 5 mph 82% 0 in
03:24 57.9 °F 52.5 °F 30 in Este 2.4 mph 4 mph 82% 0 in
03:29 57.9 °F 52.5 °F 30 in NE 2 mph 4 mph 82% 0 in
03:34 57.9 °F 52.5 °F 30 in NNO 1.4 mph 5 mph 82% 0 in
03:39 57.9 °F 52.5 °F 30 in NO 1.6 mph 5.4 mph 82% 0 in
03:44 57.7 °F 52.3 °F 30 in NO 1.8 mph 6 mph 82% 0 in
03:49 57.7 °F 52.3 °F 30 in NNO 1.9 mph 5 mph 82% 0 in
03:54 57.7 °F 52.3 °F 30 in NNO 2 mph 3 mph 82% 0 in
03:59 57.7 °F 52.3 °F 30 in North 1.1 mph 4.6 mph 82% 0 in
04:04 57.7 °F 52.3 °F 30 in Calm   5 mph 82.3% 0 in
04:09 57.6 °F 52.5 °F 30 in NNE 0.7 mph 5 mph 83% 0 in
04:14 57.7 °F 52.5 °F 30 in NNE 1.8 mph   83% 0 in
04:19 57.7 °F 52.5 °F 30 in NNE 1.1 mph 3.6 mph 83% 0 in
04:24 57.6 °F 52.3 °F 30 in Calm   4 mph 82.5% 0 in
04:29 57.6 °F 52.3 °F 30 in NNE 0.8 mph 5.2 mph 83% 0 in
04:34 57.4 °F 52.3 °F 30 in NE 2 mph 5 mph 83% 0 in
04:39 57.4 °F 52.3 °F 30 in NE 2.2 mph 5 mph 83% 0 in
04:44 57.2 °F 52.2 °F 30 in NE 2.4 mph 5 mph 83% 0 in
04:49 57.2 °F 52.3 °F 30 in NE 2.2 mph 5 mph 83.8% 0 in
04:54 57 °F 52.2 °F 30 in NE 2 mph 4 mph 84% 0 in
04:59 57 °F 52.2 °F 30 in NE 1 mph 3 mph 84% 0 in
05:04 57 °F 52.2 °F 30 in Calm     84% 0 in
05:09 57 °F 52.2 °F 30 in Calm   2.3 mph 84% 0 in
05:14 57 °F 52.2 °F 30 in Calm   2 mph 84% 0 in
05:19 57 °F 52.2 °F 30 in NE 0.6 mph 4.6 mph 84% 0 in
05:24 57 °F 52.2 °F 30 in ENE 1.4 mph 5 mph 84% 0 in
05:29 57 °F 52.2 °F 30 in Este 1.4 mph 3 mph 84% 0 in
05:34 56.8 °F 52.2 °F 30 in Este 1.4 mph 2.4 mph 84% 0 in
05:39 56.8 °F 52.3 °F 30 in Este 0.8 mph 2 mph 84.7% 0 in
05:44 56.8 °F 52.5 °F 30 in Calm     85% 0 in
05:49 56.8 °F 52.3 °F 30 in Calm   2.3 mph 84.7% 0 in
05:54 56.8 °F 52.5 °F 30 in Calm   2.9 mph 85% 0 in
05:59 56.8 °F 52.3 °F 30 in Calm   4 mph 84.5% 0 in
06:04 56.8 °F 52.2 °F 30 in Calm   5 mph 84% 0 in
06:09 56.7 °F 52 °F 30 in Este 0.7 mph 5 mph 84% 0 in
06:14 56.7 °F 52.2 °F 30 in Este 1.8 mph 4.6 mph 84.8% 0 in
06:19 56.5 °F 52 °F 30 in Este 1.8 mph 5 mph 85% 0 in
06:24 56.5 °F 52 °F 30 in Este 1.8 mph 4 mph 85.1% 0 in
06:29 56.5 °F 52.3 °F 30 in Este 1.8 mph 4 mph 86% 0 in
06:34 56.5 °F 52 °F 30 in ESE 1.8 mph 4.6 mph 85.2% 0 in
06:39 56.5 °F 52.2 °F 30 in ESE 1.8 mph 5 mph 85.5% 0 in
06:44 56.5 °F 52.2 °F 30 in ESE 1.8 mph 3.6 mph 85.3% 0 in
06:49 56.5 °F 52 °F 30 in ESE 1.8 mph 4 mph 85.1% 0 in
06:54 56.5 °F 52 °F 30 in ESE 1.8 mph 3.6 mph 85% 0 in
06:59 56.7 °F 52.2 °F 30 in ESE 1.8 mph 4 mph 85% 0 in
07:04 56.7 °F 52.5 °F 30 in ESE 1.8 mph 2.4 mph 85.8% 0 in
07:09 56.8 °F 52.3 °F 30 in ESE 1.6 mph 4.7 mph 85.2% 0 in
07:14 56.8 °F 52.3 °F 30 in SE 1.4 mph 5 mph 85% 0 in
07:19 56.8 °F 52.3 °F 30 in SE 1.6 mph 5 mph 85% 0 in
07:24 56.8 °F 52.5 °F 30 in SE 1.8 mph   85% 0 in
07:29 57 °F 52.5 °F 30 in SE 1.1 mph   85% 0 in
07:34 57.2 °F 52.7 °F 30 in Calm     85% 0 in
07:39 57.4 °F 52.7 °F 30 in Calm     84.1% 0 in
07:44 57.4 °F 52.5 °F 30 in Calm     84% 0 in
07:49 57.6 °F 52.7 °F 30 in Calm     84% 0 in
07:54 57.6 °F 52.7 °F 30 in Calm     83.6% 0 in
07:59 57.6 °F 52.9 °F 30 in Calm     84% 0 in
08:04 57.7 °F 52.9 °F 30 in Calm     83.5% 0 in
08:09 57.9 °F 53.1 °F 30 in Calm     83.7% 0 in
08:14 57.9 °F 53.1 °F 30 in Calm     84% 0 in
08:19 58.1 °F 53.4 °F 30 in Calm   2.3 mph 83.9% 0 in
08:24 58.3 °F 53.1 °F 30 in Calm   3.6 mph 83% 0 in
08:29 58.3 °F 53.2 °F 30 in NNE 0.6 mph 4 mph 83% 0 in
08:34 58.5 °F 53.2 °F 30 in NNE 1.4 mph 2.4 mph 83% 0 in
08:39 58.6 °F 53.4 °F 30 in NNE 0.9 mph 2.9 mph 83% 0 in
08:44 58.8 °F 53.6 °F 30 in Calm   3.1 mph 83% 0 in
08:49 59 °F 53.4 °F 30 in Calm   4.6 mph 82% 0 in
08:54 59.2 °F 53.6 °F 30 in Calm   5 mph 82% 0 in
08:59 59.4 °F 53.8 °F 30 in NO 0.9 mph 5 mph 82% 0 in
09:04 59.5 °F 54 °F 30 in NO 1.8 mph 5 mph 81.8% 0 in
09:09 59.5 °F 53.8 °F 30 in NO 1.1 mph 2.9 mph 81% 0 in
09:14 59.7 °F 53.8 °F 30 in Calm   3 mph 81% 0 in
09:19 59.9 °F 54.1 °F 30.1 in Calm   2.9 mph 81% 0 in
09:24 60.1 °F 54.1 °F 30.1 in Calm   3.6 mph 80.9% 0 in
09:29 60.3 °F 54 °F 30.1 in Calm   4 mph 80% 0 in
09:34 60.3 °F 54.1 °F 30.1 in Calm   5 mph 80% 0 in
09:39 60.4 °F 54.3 °F 30.1 in Calm   3 mph 80% 0 in
09:44 61 °F 54.7 °F 30.1 in Calm     80% 0 in
09:49 61.2 °F 54.7 °F 30.1 in Calm     79.1% 0 in
09:54 61.3 °F 54.7 °F 30.1 in Calm   4.6 mph 79% 0 in
09:59 61.5 °F 54.9 °F 30.1 in NO 0.9 mph 5.8 mph 79% 0 in
10:04 61.5 °F 54.9 °F 30.1 in ONO 1.8 mph 6 mph 79% 0 in
10:09 61.5 °F 54.9 °F 30.1 in NNO 2.1 mph 6 mph 79% 0 in
10:14 61.3 °F 54.9 °F 30.1 in NNE 2.4 mph 5 mph 79% 0 in
10:19 61.5 °F 54.9 °F 30.1 in Este 2.2 mph 4.6 mph 79% 0 in
10:24 61.7 °F 55.2 °F 30.1 in North 1.8 mph 5.2 mph 79% 0 in
10:29 61.9 °F 55.4 °F 30.1 in NNE 2.1 mph 5 mph 79% 0 in
10:34 62.1 °F 55.4 °F 30.1 in NE 2.4 mph 6.2 mph 78.4% 0 in
10:39 62.4 °F 55.4 °F 30.1 in NE 2.6 mph 8.1 mph 78% 0 in
10:44 62.8 °F 55.6 °F 30.1 in ENE 2.9 mph 8.1 mph 77.6% 0 in
10:49 63.1 °F 55.4 °F 30.1 in Este 3.2 mph 8 mph 76% 0 in
10:54 63.3 °F 55.6 °F 30.1 in ESE 3.6 mph 6 mph 75.9% 0 in
10:59 63.9 °F 55.8 °F 30.1 in Este 3.4 mph 6.2 mph 75% 0 in
11:04 64 °F 55.8 °F 30.1 in NE 3.1 mph 6.4 mph 74.4% 0 in
11:09 64.2 °F 55.8 °F 30.1 in NNO 3.3 mph 6 mph 74% 0 in
11:14 64.2 °F 55.8 °F 30.1 in NNE 3.6 mph 5.9 mph 73.8% 0 in
11:19 64.8 °F 55.9 °F 30.1 in North 3.3 mph 6 mph 73.3% 0 in
11:24 64.9 °F 56.1 °F 30.1 in Este 2.9 mph 6.9 mph 72.7% 0 in
11:29 65.3 °F 55.9 °F 30.1 in Este 3.2 mph 7 mph 72.1% 0 in
11:34 65.5 °F 56.1 °F 30.1 in Este 3.6 mph 5.2 mph 72% 0 in
11:39 65.8 °F 56.3 °F 30.1 in NE 2.9 mph 6.9 mph 71.2% 0 in
11:44 66 °F 56.1 °F 30.1 in ENE 2 mph 7 mph 70.5% 0 in
11:49 66.4 °F 56.5 °F 30.1 in ESE 2 mph 5.8 mph 70.2% 0 in
11:54 66.7 °F 56.3 °F 30.1 in NNO 2 mph 6.9 mph 69.2% 0 in
11:59 67.1 °F 56.5 °F 30.1 in NE 2.4 mph 7 mph 69% 0 in
12:04 67.6 °F 56.8 °F 30.1 in ESE 2.9 mph 6.2 mph 68.5% 0 in
12:09 68.4 °F 57 °F 30 in North 2.7 mph 6 mph 67% 0 in
12:14 68.7 °F 57 °F 30 in ENE 2.4 mph 8.1 mph 66.3% 0 in
12:19 68.4 °F 56.8 °F 30 in NE 2.9 mph 8 mph 66.6% 0 in
12:24 68.5 °F 57 °F 30 in NE 3.6 mph 8.1 mph 67% 0 in
12:29 68.5 °F 57 °F 30 in NNE 3.7 mph 8.5 mph 67% 0 in
12:34 68.7 °F 57.4 °F 30 in North 4 mph 9 mph 67% 0 in
12:39 69.3 °F 57.4 °F 30 in NNE 4 mph 11.5 mph 66.1% 0 in
12:44 69.3 °F 57.4 °F 30 in NNE 4 mph 12 mph 66% 0 in
12:49 69.6 °F 57.6 °F 30 in NNE 4.5 mph 11 mph 65.8% 0 in
12:54 69.6 °F 57.4 °F 30 in NE 5.2 mph 13 mph 65.1% 0 in
12:59 69.8 °F 57.7 °F 30 in NE 5.8 mph 13 mph 65.3% 0 in
13:04 70 °F 57.7 °F 30 in NE 6.4 mph 11.4 mph 65% 0 in
13:09 70.3 °F 57.9 °F 30 in NE 6.2 mph 12 mph 64.5% 0 in
13:14 70.9 °F 57.9 °F 30 in NE 5.9 mph 12 mph 63.6% 0 in
13:19 71.1 °F 58.1 °F 30 in NNE 5.4 mph 15 mph 63.4% 0 in
13:24 71.4 °F 57.9 °F 30 in NE 4.7 mph 15 mph 62.5% 0 in
13:29 71.8 °F 57.9 °F 30 in NNE 5.7 mph 13 mph 61.7% 0 in
13:34 72.1 °F 58.1 °F 30 in NE 7.4 mph 12 mph 61.2% 0 in
13:39 72.5 °F 58.1 °F 30 in NE 6.5 mph 11.8 mph 60.3% 0 in
13:44 73 °F 58.3 °F 30 in NE 5.2 mph 12 mph 59.7% 0 in
13:49 73.6 °F 58.3 °F 30 in NE 5.5 mph 13.8 mph 58.6% 0 in
13:54 73.8 °F 58.1 °F 30 in NE 5.9 mph 14 mph 58% 0 in
13:59 73.9 °F 58.3 °F 30 in NE 6.4 mph 12.7 mph 58.5% 0 in
14:04 73.9 °F 58.5 °F 30 in NE 6.9 mph 13.8 mph 58.2% 0 in
14:09 73.9 °F 58.6 °F 30 in NE 7.4 mph 14 mph 59.1% 0 in
14:14 73.9 °F 58.6 °F 30 in ENE 8.1 mph 18.4 mph 58.6% 0 in
14:19 73.9 °F 58.6 °F 30 in NE 8.3 mph 18 mph 59.1% 0 in
14:24 74.1 °F 58.8 °F 30 in NE 8.5 mph 14 mph 59.1% 0 in
14:29 74.5 °F 59.2 °F 30 in NE 8.1 mph 19 mph 59% 0 in
14:34 74.5 °F 59.2 °F 30 in NE 7.6 mph 19 mph 59% 0 in
14:39 74.1 °F 58.8 °F 30 in NNE 8.6 mph 20.7 mph 58.8% 0 in
14:44 74.3 °F 58.6 °F 30 in ENE 10.2 mph 21 mph 58% 0 in
14:49 74.7 °F 58.5 °F 30 in Este 8.6 mph 13 mph 57% 0 in
14:54 74.8 °F 58.3 °F 30 in ESE 6.2 mph 13 mph 56.5% 0 in
14:59 74.7 °F 58.1 °F 30 in Este 6.8 mph 13 mph 56.3% 0 in
15:04 75 °F 58.8 °F 30 in ESE 7.4 mph 13 mph 57% 0 in
15:09 75.6 °F 58.5 °F 30 in ESE 7 mph 13 mph 55.5% 0 in
15:14 75.4 °F 58.5 °F 30 in ESE 6.4 mph 13 mph 55.6% 0 in
15:19 75.6 °F 58.3 °F 30 in ESE 6.4 mph 16.1 mph 55.2% 0 in
15:24 75.2 °F 58.3 °F 30 in ESE 6.4 mph 16 mph 55.6% 0 in
15:29 75.2 °F 58.5 °F 30 in ESE 6.8 mph 14 mph 56.1% 0 in
15:34 75.6 °F 58.6 °F 30 in ENE 7.4 mph 14 mph 56% 0 in
15:39 75.6 °F 58.3 °F 30 in ESE 7 mph 13 mph 55.1% 0 in
15:44 75.4 °F 58.1 °F 30 in Este 6.4 mph 13 mph 55% 0 in
15:49 75.6 °F 58.3 °F 30 in Este 5.9 mph 13.8 mph 55% 0 in
15:54 75.6 °F 58.3 °F 30 in ESE 5.2 mph 14 mph 55% 0 in
15:59 75.6 °F 58.5 °F 30 in ESE 6.3 mph 16.1 mph 55.5% 0 in
16:04 75.2 °F 58.1 °F 30 in SE 7.4 mph 16 mph 55.3% 0 in
16:09 74.8 °F 58.3 °F 30 in ESE 8.3 mph 17 mph 56.3% 0 in
16:14 74.7 °F 58.3 °F 30 in Este 9.7 mph 17.3 mph 56.7% 0 in
16:19 74.7 °F 58.1 °F 30 in ESE 9.3 mph 15 mph 56.5% 0 in
16:24 75 °F 58.5 °F 30 in ESE 8.7 mph 14 mph 56.4% 0 in
16:29 75 °F 58.3 °F 30 in ESE 8.2 mph 15 mph 55.8% 0 in
16:34 75 °F 58.1 °F 30 in Este 7.4 mph 15 mph 55.7% 0 in
16:39 75 °F 58.3 °F 30 in ESE 7.4 mph 15.2 mph 56% 0 in
16:44 75 °F 58.5 °F 30 in ESE 7.4 mph 15 mph 56.3% 0 in
16:49 75.2 °F 58.3 °F 30 in ESE 7.2 mph 12 mph 55.9% 0 in
16:54 75.4 °F 58.3 °F 30 in ESE 6.9 mph 12.3 mph 55.5% 0 in
16:59 75.2 °F 58.3 °F 30 in Este 6.9 mph 16.1 mph 55.6% 0 in
17:04 75 °F 58.5 °F 30 in ESE 6.9 mph 17.3 mph 56.4% 0 in
17:09 74.8 °F 58.6 °F 30 in ESE 7.5 mph 17 mph 57% 0 in
17:14 74.8 °F 58.6 °F 30 in ESE 9.2 mph 17.8 mph 57% 0 in
17:19 74.5 °F 58.6 °F 30 in ESE 9.2 mph 18 mph 57.7% 0 in
17:24 74.5 °F 58.6 °F 30 in ESE 9.3 mph 19.2 mph 58% 0 in
17:29 74.3 °F 58.8 °F 30 in ESE 9.8 mph 20 mph 58.5% 0 in
17:34 74.5 °F 59.2 °F 30 in ESE 10 mph 20 mph 58.9% 0 in
17:39 74.3 °F 59 °F 30 in ESE 10.1 mph 19 mph 58.9% 0 in
17:44 74.1 °F 59 °F 30 in ESE 10.2 mph 17.5 mph 59.2% 0 in
17:49 73.9 °F 59 °F 30 in ESE 9.8 mph 17.3 mph 59.4% 0 in
17:54 73.9 °F 59.2 °F 30 in SE 9.2 mph 17 mph 60% 0 in
17:59 73.9 °F 59.2 °F 30 in SE 9.6 mph 16.8 mph 60% 0 in
18:04 73.8 °F 59.4 °F 30 in ESE 10 mph 17.8 mph 61% 0 in
18:09 73.2 °F 59.2 °F 30 in SE 10.3 mph 18.4 mph 61.4% 0 in
18:14 72.9 °F 59.2 °F 30 in ESE 10.7 mph 18 mph 62% 0 in
18:19 72.9 °F 59.4 °F 30 in ESE 10.7 mph 18.1 mph 62.7% 0 in
18:24 73 °F 59.2 °F 30 in SE 10.7 mph 18.4 mph 62% 0 in
18:29 72.9 °F 59.2 °F 30 in ESE 10 mph 18 mph 62% 0 in
18:34 73 °F 59.2 °F 30 in ESE 9.2 mph 15 mph 62% 0 in
18:39 72.9 °F 59.2 °F 30 in ESE 8.9 mph 16.3 mph 62.5% 0 in
18:44 72.5 °F 59.2 °F 30 in ESE 8.5 mph 16 mph 63% 0 in
18:49 72.5 °F 59.2 °F 30 in ESE 8.6 mph 15.2 mph 63% 0 in
18:54 72.3 °F 59 °F 30 in ESE 8.7 mph 15 mph 63% 0 in
18:59 72.3 °F 59 °F 30 in SE 8.4 mph 15 mph 63% 0 in
19:04 72.3 °F 59 °F 30 in ESE 8.1 mph 15 mph 63% 0 in
19:09 72 °F 59 °F 30 in ESE 8.3 mph 13.8 mph 63.8% 0 in
19:14 71.6 °F 59 °F 30 in ESE 8.7 mph 16.3 mph 64.5% 0 in
19:19 71.1 °F 58.8 °F 30 in ESE 8.9 mph 16 mph 65.3% 0 in
19:24 71.1 °F 59 °F 30 in ESE 9.2 mph 16.1 mph 65.5% 0 in
19:29 71.2 °F 59 °F 30 in Este 8.3 mph 13 mph 65.1% 0 in
19:34 71.1 °F 59 °F 30 in Este 6.9 mph 13.8 mph 65.8% 0 in
19:39 70.5 °F 58.8 °F 30 in Este 7.1 mph 14 mph 66.5% 0 in
19:44 70.5 °F 59 °F 30 in ENE 7.6 mph 13 mph 67% 0 in
19:49 70.5 °F 59 °F 30 in Este 7.1 mph 13.8 mph 67% 0 in
19:54 70.3 °F 58.8 °F 30 in Este 6.2 mph 14 mph 67% 0 in
19:59 70.2 °F 58.8 °F 30 in ENE 6.2 mph 12 mph 67% 0 in
20:04 70.3 °F 58.8 °F 30 in Este 6.2 mph 11.8 mph 67% 0 in
20:09 70.2 °F 58.8 °F 30 in ESE 6.1 mph 12.7 mph 67% 0 in
20:14 70.2 °F 58.6 °F 30 in Este 5.9 mph 13 mph 67% 0 in
20:19 70 °F 58.8 °F 30 in NE 6 mph 11.5 mph 67.6% 0 in
20:24 69.6 °F 59 °F 30 in NE 6.2 mph 13.5 mph 69.1% 0 in
20:29 69.3 °F 59 °F 30 in NE 6.8 mph 13.8 mph 70% 0 in
20:34 68.7 °F 58.8 °F 30 in NE 7.6 mph 14 mph 70.8% 0 in
20:39 68.5 °F 59 °F 30 in NE 8 mph 14 mph 71.6% 0 in
20:44 68.4 °F 59 °F 30 in NE 8.5 mph 15.9 mph 72% 0 in
20:49 68 °F 59 °F 30 in NE 8.8 mph 19.7 mph 73.2% 0 in
20:54 67.5 °F 59 °F 30 in NE 9.2 mph 20 mph 74.4% 0 in
20:59 66.7 °F 58.8 °F 30 in NE 10.1 mph 20 mph 75.3% 0 in
21:04 66.6 °F 58.8 °F 30 in NE 11.2 mph 17.3 mph 76% 0 in
21:09 66.6 °F 58.6 °F 30 in NE 10.8 mph 17 mph 76% 0 in
21:14 66.2 °F 58.6 °F 30 in NE 10.2 mph 18.1 mph 76.8% 0 in
21:19 65.8 °F 58.6 °F 30 in NE 10.2 mph 18 mph 77.4% 0 in
21:24 65.8 °F 58.8 °F 30 in NE 10.2 mph 16 mph 78% 0 in
21:29 65.7 °F 58.6 °F 30 in NE 9.5 mph 14 mph 78% 0 in
21:34 65.5 °F 58.5 °F 30 in NE 8.5 mph 16.3 mph 78.6% 0 in
21:39 65.1 °F 58.5 °F 30 in NE 8.8 mph 16 mph 79% 0 in
21:44 65.1 °F 58.5 °F 30 in NE 9.2 mph 13 mph 79% 0 in
21:49 64.9 °F 58.3 °F 30 in NE 8.9 mph 14 mph 79% 0 in
21:54 64.9 °F 58.5 °F 30 in NE 8.5 mph 14 mph 79.8% 0 in
21:59 64.8 °F 58.5 °F 30 in NE 8.1 mph 13 mph 80% 0 in
22:04 64.8 °F 58.3 °F 30 in NE 7.6 mph 13.8 mph 80% 0 in
22:09 64.6 °F 58.3 °F 30 in NE 7.6 mph 14 mph 80% 0 in
22:14 64.6 °F 58.5 °F 30 in NE 7.6 mph 15.2 mph 80.6% 0 in
22:19 64.2 °F 58.3 °F 30 in NE 7.8 mph 15 mph 81% 0 in
22:24 64.2 °F 58.3 °F 30 in NE 8.1 mph 15 mph 81% 0 in
22:29 64.2 °F 58.3 °F 30 in NE 8.1 mph 14 mph 81% 0 in
22:34 64.2 °F 58.3 °F 30 in NE 8.1 mph 12 mph 81% 0 in
22:39 64 °F 58.3 °F 30 in NE 7.6 mph 11.8 mph 81.4% 0 in
22:44 64 °F 58.5 °F 30 in NE 6.9 mph 12 mph 82% 0 in
22:49 64 °F 58.5 °F 30 in NE 6.3 mph 9 mph 82% 0 in
22:54 63.9 °F 58.3 °F 30 in NE 5.4 mph 8.7 mph 82% 0 in
22:59 63.9 °F 58.3 °F 30 in NE 5.7 mph 9.7 mph 82% 0 in
23:04 63.9 °F 58.3 °F 30 in NE 5.9 mph 10.4 mph 82% 0 in
23:09 63.7 °F 58.1 °F 30 in NE 5.7 mph 10 mph 82.2% 0 in
23:14 63.7 °F 58.5 °F 30 in NE 5.4 mph 8.5 mph 83% 0 in
23:19 63.7 °F 58.5 °F 30 in NE 5.2 mph 9 mph 83% 0 in
23:24 63.7 °F 58.1 °F 30 in NE 4.7 mph 8.1 mph 82.4% 0 in
23:29 63.3 °F 58.1 °F 30 in NE 5.2 mph 9.2 mph 83% 0 in
23:34 63.1 °F 58.1 °F 30 in NE 5.9 mph 9 mph 83% 0 in
23:39 63.1 °F 58.1 °F 30 in NE 5.6 mph 9 mph 83.7% 0 in
23:44 63 °F 57.9 °F 30 in NNE 5.2 mph 9 mph 84% 0 in
23:49 62.8 °F 57.9 °F 30 in NNE 5 mph 7 mph 84% 0 in
23:54 62.8 °F 58.1 °F 30 in NE 4.7 mph 7 mph 84.4% 0 in
23:59 62.6 °F 58.1 °F 30 in NE 4.5 mph 7 mph 85% 0 in
Murcia-Puente Tocinos, España
Compliments of Weather Underground - 2.75 mb

La estación de MeteoMurcia.com, publica sus datos en los siguientes proyectos:

Weather Underground PWS IMURCIAP2 Meteoclimatic www.awekas.at

W3Counter
Web Analytics